createdAt,value
2019-01-09T00:01:25.094Z,3.60
2019-01-09T00:03:29.323Z,3.57
2019-01-09T00:05:33.117Z,2.90
2019-01-09T00:07:36.895Z,4.07
2019-01-09T00:09:40.612Z,3.87
2019-01-09T00:11:44.356Z,3.20
2019-01-09T00:13:49.791Z,3.03
2019-01-09T00:15:53.488Z,2.80
2019-01-09T00:17:57.269Z,3.37
2019-01-09T00:20:01.057Z,4.40
2019-01-09T00:22:06.155Z,3.47
2019-01-09T00:24:09.984Z,3.17
2019-01-09T00:26:13.715Z,2.67
2019-01-09T00:28:17.476Z,3.07
2019-01-09T00:30:21.218Z,3.00
2019-01-09T00:32:24.967Z,3.57
2019-01-09T00:34:28.655Z,2.87
2019-01-09T00:36:32.349Z,3.07
2019-01-09T00:38:36.098Z,3.30
2019-01-09T00:40:39.842Z,3.30
2019-01-09T00:42:43.581Z,2.80
2019-01-09T00:44:47.268Z,3.40
2019-01-09T00:46:50.989Z,2.53
2019-01-09T00:48:54.784Z,3.33
2019-01-09T00:50:58.520Z,2.83
2019-01-09T00:53:02.274Z,3.00
2019-01-09T00:55:08.110Z,3.23
2019-01-09T00:57:11.949Z,3.00
2019-01-09T00:59:15.801Z,2.67
2019-01-09T01:01:19.655Z,3.43
2019-01-09T01:03:29.040Z,2.87
2019-01-09T01:06:04.048Z,2.87
2019-01-09T01:08:45.431Z,3.30
2019-01-09T01:11:12.896Z,2.90
2019-01-09T01:13:43.323Z,2.60
2019-01-09T01:16:14.260Z,2.47
2019-01-09T01:18:41.885Z,3.23
2019-01-09T01:20:51.193Z,2.80
2019-01-09T01:23:26.562Z,3.90
2019-01-09T01:25:35.941Z,3.10
2019-01-09T01:27:42.627Z,3.10
2019-01-09T01:30:25.745Z,3.23
2019-01-09T01:32:44.371Z,3.90
2019-01-09T01:34:54.000Z,3.00
2019-01-09T01:37:32.275Z,2.80
2019-01-09T01:39:48.322Z,3.37
2019-01-09T01:42:01.011Z,3.03
2019-01-09T01:44:10.900Z,3.37
2019-01-09T01:46:20.440Z,2.87
2019-01-09T01:49:01.828Z,3.70
2019-01-09T01:51:37.423Z,2.93
2019-01-09T01:54:00.726Z,3.90
2019-01-09T01:56:16.300Z,2.93
2019-01-09T01:58:44.237Z,2.97
2019-01-09T02:00:59.741Z,2.97
2019-01-09T02:03:15.644Z,3.17
2019-01-09T02:05:25.293Z,2.20
2019-01-09T02:07:49.592Z,3.37
2019-01-09T02:10:30.932Z,2.80
2019-01-09T02:13:03.328Z,2.80
2019-01-09T02:15:26.593Z,2.67
2019-01-09T02:17:42.321Z,2.60
2019-01-09T02:19:57.950Z,2.67
2019-01-09T02:22:07.691Z,2.60
2019-01-09T02:24:17.071Z,3.47
2019-01-09T02:26:35.652Z,4.53
2019-01-09T02:28:45.078Z,2.90
2019-01-09T02:31:01.001Z,2.40
2019-01-09T02:33:04.715Z,2.77
2019-01-09T02:35:08.449Z,2.37
2019-01-09T02:37:12.115Z,2.70
2019-01-09T02:39:15.767Z,2.73
2019-01-09T02:41:19.554Z,2.47
2019-01-09T02:43:23.126Z,2.00
2019-01-09T02:45:27.138Z,2.40
2019-01-09T02:47:30.873Z,2.07
2019-01-09T02:49:34.559Z,2.90
2019-01-09T02:51:38.291Z,2.00
2019-01-09T02:53:42.046Z,2.40
2019-01-09T02:55:45.659Z,1.93
2019-01-09T02:57:56.592Z,2.30
2019-01-09T02:59:54.750Z,2.13
2019-01-09T03:01:58.491Z,2.07
2019-01-09T03:04:02.226Z,2.33
2019-01-09T03:06:05.976Z,1.63
2019-01-09T03:08:09.679Z,1.87
2019-01-09T03:10:13.720Z,2.43
2019-01-09T03:12:17.508Z,1.80
2019-01-09T03:14:21.257Z,2.00
2019-01-09T03:16:24.958Z,2.20
2019-01-09T03:18:28.681Z,2.20
2019-01-09T03:20:32.409Z,2.10
2019-01-09T03:22:36.176Z,2.23
2019-01-09T03:24:39.901Z,2.07
2019-01-09T03:26:43.647Z,2.63
2019-01-09T03:28:47.366Z,1.90
2019-01-09T03:30:51.070Z,1.90
2019-01-09T03:32:54.845Z,2.77
2019-01-09T03:34:58.532Z,2.20
2019-01-09T03:37:02.240Z,1.70
2019-01-09T03:39:06.892Z,2.00
2019-01-09T03:41:10.606Z,1.70
2019-01-09T03:43:14.381Z,1.63
2019-01-09T03:45:18.113Z,2.47
2019-01-09T03:47:21.906Z,1.77
2019-01-09T03:49:25.596Z,2.40
2019-01-09T03:51:29.284Z,2.37
2019-01-09T03:53:32.968Z,1.93
2019-01-09T03:55:36.599Z,2.13
2019-01-09T03:57:40.400Z,1.90
2019-01-09T03:59:44.057Z,2.00
2019-01-09T04:01:47.791Z,1.80
2019-01-09T04:03:51.480Z,2.03
2019-01-09T04:05:55.141Z,1.63
2019-01-09T04:07:58.822Z,2.43
2019-01-09T04:10:02.641Z,2.30
2019-01-09T04:12:06.353Z,1.80
2019-01-09T04:14:10.187Z,1.80
2019-01-09T04:16:13.846Z,2.20
2019-01-09T04:18:17.515Z,2.57
2019-01-09T04:20:21.095Z,2.33
2019-01-09T04:22:24.770Z,2.00
2019-01-09T04:24:28.422Z,1.87
2019-01-09T04:26:32.085Z,2.27
2019-01-09T04:28:35.912Z,1.80
2019-01-09T04:30:39.572Z,2.30
2019-01-09T04:32:43.146Z,2.20
2019-01-09T04:34:46.911Z,2.17
2019-01-09T04:36:51.945Z,2.33
2019-01-09T04:38:55.701Z,3.00
2019-01-09T04:40:59.373Z,2.00
2019-01-09T04:43:02.998Z,2.27
2019-01-09T04:45:07.542Z,2.00
2019-01-09T04:47:11.127Z,1.67
2019-01-09T04:49:14.769Z,1.70
2019-01-09T04:51:18.461Z,2.47
2019-01-09T04:53:22.039Z,2.57
2019-01-09T04:55:25.763Z,3.00
2019-01-09T04:57:29.417Z,2.20
2019-01-09T04:59:33.027Z,2.43
2019-01-09T05:01:36.757Z,2.13
2019-01-09T05:03:40.468Z,2.40
2019-01-09T05:05:44.166Z,2.43
2019-01-09T05:07:47.766Z,2.67
2019-01-09T05:09:53.649Z,2.20
2019-01-09T05:11:56.709Z,2.07
2019-01-09T05:14:00.463Z,2.17
2019-01-09T05:16:04.159Z,2.60
2019-01-09T05:18:07.885Z,2.40
2019-01-09T05:20:11.628Z,2.40
2019-01-09T05:22:15.223Z,2.43
2019-01-09T05:24:18.798Z,2.50
2019-01-09T05:26:22.450Z,2.90
2019-01-09T05:28:26.093Z,2.50
2019-01-09T05:30:29.813Z,2.90
2019-01-09T05:32:33.533Z,2.43
2019-01-09T05:34:37.257Z,2.33
2019-01-09T05:36:41.019Z,3.30
2019-01-09T05:38:44.688Z,5.00
2019-01-09T05:40:48.393Z,4.50
2019-01-09T05:42:52.212Z,4.80
2019-01-09T05:44:57.756Z,6.33
2019-01-09T05:47:01.342Z,8.60
2019-01-09T05:49:05.089Z,7.97
2019-01-09T05:51:08.770Z,9.23
2019-01-09T05:53:12.431Z,9.83
2019-01-09T05:55:16.125Z,9.90
2019-01-09T05:57:19.847Z,10.00
2019-01-09T05:59:23.628Z,12.83
2019-01-09T06:01:27.373Z,12.53
2019-01-09T06:03:30.972Z,10.27
2019-01-09T06:05:34.654Z,10.70
2019-01-09T06:07:38.377Z,11.13
2019-01-09T06:09:42.099Z,8.87
2019-01-09T06:11:45.784Z,6.10
2019-01-09T06:13:49.447Z,7.60
2019-01-09T06:15:53.132Z,5.30
2019-01-09T06:17:56.804Z,4.07
2019-01-09T06:20:00.552Z,3.27
2019-01-09T06:22:04.246Z,3.20
2019-01-09T06:24:07.909Z,3.90
2019-01-09T06:26:11.605Z,4.10
2019-01-09T06:28:15.249Z,3.10
2019-01-09T06:30:18.900Z,3.20
2019-01-09T06:32:22.646Z,2.93
2019-01-09T06:34:26.290Z,2.90
2019-01-09T06:36:29.934Z,2.87
2019-01-09T06:38:33.592Z,2.87
2019-01-09T06:40:37.331Z,2.70
2019-01-09T06:42:41.052Z,2.83
2019-01-09T06:44:44.696Z,2.70
2019-01-09T06:46:48.396Z,3.10
2019-01-09T06:48:52.089Z,2.80
2019-01-09T06:50:55.728Z,2.53
2019-01-09T06:52:59.341Z,2.33
2019-01-09T06:55:03.081Z,3.47
2019-01-09T06:57:06.825Z,2.90
2019-01-09T06:59:10.498Z,3.80
2019-01-09T07:01:14.096Z,2.73
2019-01-09T07:03:17.874Z,3.10
2019-01-09T07:05:21.595Z,2.80
2019-01-09T07:07:25.207Z,2.60
2019-01-09T07:09:29.094Z,2.80
2019-01-09T07:11:32.851Z,2.40
2019-01-09T07:13:36.493Z,2.90
2019-01-09T07:15:41.946Z,2.70
2019-01-09T07:17:45.631Z,2.87
2019-01-09T07:19:49.368Z,4.13
2019-01-09T07:21:53.181Z,2.37
2019-01-09T07:23:56.919Z,3.27
2019-01-09T07:26:00.680Z,3.00
2019-01-09T07:28:04.346Z,2.47
2019-01-09T07:30:09.786Z,2.80
2019-01-09T07:32:13.388Z,2.67
2019-01-09T07:34:17.029Z,2.90
2019-01-09T07:36:20.687Z,2.43
2019-01-09T07:38:24.381Z,1.93
2019-01-09T07:40:28.088Z,2.60
2019-01-09T07:42:31.769Z,2.57
2019-01-09T07:44:35.427Z,2.67
2019-01-09T07:46:39.691Z,2.17
2019-01-09T07:48:43.537Z,2.60
2019-01-09T07:50:47.818Z,2.60
2019-01-09T07:52:51.695Z,3.07
2019-01-09T07:54:55.517Z,2.80
2019-01-09T07:56:59.447Z,2.30
2019-01-09T07:59:03.385Z,3.33
2019-01-09T08:01:07.315Z,2.87
2019-01-09T08:03:11.168Z,2.40
2019-01-09T08:05:14.985Z,2.40
2019-01-09T08:07:18.832Z,2.70
2019-01-09T08:09:22.652Z,2.77
2019-01-09T08:11:26.561Z,2.40
2019-01-09T08:13:30.461Z,2.60
2019-01-09T08:15:34.319Z,2.90
2019-01-09T08:17:38.108Z,2.57
2019-01-09T08:19:42.010Z,2.20
2019-01-09T08:21:45.904Z,2.83
2019-01-09T08:23:51.276Z,2.47
2019-01-09T08:25:55.118Z,2.87
2019-01-09T08:27:58.992Z,2.13
2019-01-09T08:30:02.873Z,2.07
2019-01-09T08:32:06.696Z,2.30
2019-01-09T08:34:10.611Z,2.83
2019-01-09T08:36:14.392Z,2.50
2019-01-09T08:38:18.137Z,2.50
2019-01-09T08:40:22.045Z,2.43
2019-01-09T08:42:26.623Z,2.23
2019-01-09T08:44:30.513Z,2.10
2019-01-09T08:46:34.483Z,2.33
2019-01-09T08:48:38.435Z,3.03
2019-01-09T08:50:42.332Z,2.57
2019-01-09T08:52:46.625Z,2.20
2019-01-09T08:54:50.586Z,1.93
2019-01-09T08:56:54.438Z,1.83
2019-01-09T08:58:59.870Z,2.00
2019-01-09T09:01:05.299Z,1.73
2019-01-09T09:03:09.165Z,1.80
2019-01-09T09:05:13.054Z,2.10
2019-01-09T09:07:18.285Z,2.00
2019-01-09T09:09:22.735Z,2.67
2019-01-09T09:11:26.605Z,2.40
2019-01-09T09:13:35.642Z,3.97
2019-01-09T09:15:39.600Z,3.07
2019-01-09T09:17:44.036Z,2.53
2019-01-09T09:19:50.224Z,2.23
2019-01-09T09:21:54.712Z,2.40
2019-01-09T09:23:58.488Z,1.80
2019-01-09T09:26:02.524Z,2.13
2019-01-09T09:28:06.419Z,1.97
2019-01-09T09:30:13.256Z,2.07
2019-01-09T09:32:17.180Z,1.70
2019-01-09T09:34:21.059Z,2.07
2019-01-09T09:36:24.973Z,1.60
2019-01-09T09:38:28.916Z,1.63
2019-01-09T09:40:32.864Z,2.20
2019-01-09T09:42:36.727Z,1.90
2019-01-09T09:44:40.676Z,2.07
2019-01-09T09:46:44.485Z,2.17
2019-01-09T09:48:48.535Z,1.87
2019-01-09T09:50:53.707Z,1.70
2019-01-09T09:52:57.554Z,2.23
2019-01-09T09:55:01.470Z,1.67
2019-01-09T09:57:05.385Z,1.70
2019-01-09T09:59:10.356Z,2.07
2019-01-09T10:01:14.235Z,2.20
2019-01-09T10:03:19.932Z,2.10
2019-01-09T10:05:23.659Z,2.00
2019-01-09T10:07:27.540Z,2.40
2019-01-09T10:09:31.330Z,2.13
2019-01-09T10:11:35.264Z,2.07
2019-01-09T10:13:39.149Z,2.60
2019-01-09T10:15:43.516Z,2.03
2019-01-09T10:17:47.383Z,2.37
2019-01-09T10:19:51.278Z,2.03
2019-01-09T10:21:55.352Z,1.93
2019-01-09T10:23:59.198Z,2.07
2019-01-09T10:26:04.197Z,2.13
2019-01-09T10:28:07.989Z,2.20
2019-01-09T10:30:20.488Z,2.40
2019-01-09T10:32:24.540Z,2.30
2019-01-09T10:34:28.375Z,2.40
2019-01-09T10:36:32.923Z,2.60
2019-01-09T10:38:38.221Z,2.77
2019-01-09T10:40:42.302Z,2.70
2019-01-09T10:42:47.732Z,3.43
2019-01-09T10:44:51.630Z,2.53
2019-01-09T10:46:55.620Z,3.03
2019-01-09T10:48:59.877Z,3.20
2019-01-09T10:51:03.732Z,2.60
2019-01-09T10:53:08.363Z,2.67
2019-01-09T10:55:14.732Z,2.63
2019-01-09T10:57:19.885Z,3.17
2019-01-09T10:59:24.206Z,2.70
2019-01-09T11:01:28.076Z,2.77
2019-01-09T11:03:33.197Z,3.57
2019-01-09T11:05:37.127Z,3.00
2019-01-09T11:07:41.103Z,3.23
2019-01-09T11:09:48.309Z,3.87
2019-01-09T11:11:52.295Z,3.97
2019-01-09T11:13:56.241Z,3.47
2019-01-09T11:16:00.114Z,3.40
2019-01-09T11:18:04.050Z,3.47
2019-01-09T11:20:10.873Z,3.60
2019-01-09T11:22:15.982Z,3.73
2019-01-09T11:24:21.959Z,3.70
2019-01-09T11:26:26.282Z,3.83
2019-01-09T11:28:30.238Z,3.50
2019-01-09T11:30:35.218Z,3.37
2019-01-09T11:32:40.766Z,3.20
2019-01-09T11:34:45.525Z,3.40
2019-01-09T11:36:49.383Z,4.00
2019-01-09T11:38:56.001Z,3.60
2019-01-09T11:40:59.940Z,3.60
2019-01-09T11:43:03.857Z,3.13
2019-01-09T11:45:11.130Z,3.00
2019-01-09T11:47:14.981Z,3.43
2019-01-09T11:49:18.937Z,3.23
2019-01-09T11:51:22.773Z,4.00
2019-01-09T11:53:26.782Z,3.40
2019-01-09T11:55:30.666Z,4.40
2019-01-09T11:57:34.529Z,3.60
2019-01-09T11:59:38.477Z,3.40
2019-01-09T12:01:42.665Z,3.20
2019-01-09T12:03:47.983Z,4.10
2019-01-09T12:05:53.123Z,2.70
2019-01-09T12:07:57.123Z,2.73
2019-01-09T12:10:01.121Z,2.50
2019-01-09T12:12:05.251Z,2.53
2019-01-09T12:14:12.383Z,2.20
2019-01-09T12:16:17.760Z,2.70
2019-01-09T12:18:21.634Z,2.47
2019-01-09T12:20:25.506Z,3.10
2019-01-09T12:22:29.286Z,2.60
2019-01-09T12:24:33.262Z,3.23
2019-01-09T12:26:37.201Z,2.40
2019-01-09T12:28:41.477Z,2.67
2019-01-09T12:30:45.526Z,2.20
2019-01-09T12:32:49.513Z,2.60
2019-01-09T12:34:53.843Z,2.70
2019-01-09T12:36:57.662Z,2.40
2019-01-09T12:39:01.634Z,2.10
2019-01-09T12:41:05.672Z,2.20
2019-01-09T12:43:09.545Z,2.20
2019-01-09T12:45:16.150Z,3.20
2019-01-09T12:47:22.088Z,3.50
2019-01-09T12:49:26.716Z,2.40
2019-01-09T12:51:31.197Z,2.23
2019-01-09T12:53:36.678Z,3.17
2019-01-09T12:55:40.547Z,2.73
2019-01-09T12:57:44.609Z,2.53
2019-01-09T12:59:48.514Z,2.47
2019-01-09T13:01:52.391Z,2.63
2019-01-09T13:03:56.291Z,3.60
2019-01-09T13:06:01.332Z,2.80
2019-01-09T13:08:05.185Z,2.47
2019-01-09T13:10:10.690Z,2.60
2019-01-09T13:12:14.586Z,2.80
2019-01-09T13:14:19.713Z,3.00
2019-01-09T13:16:23.549Z,2.67
2019-01-09T13:18:27.437Z,2.70
2019-01-09T13:20:31.327Z,3.23
2019-01-09T13:22:35.189Z,2.30
2019-01-09T13:24:40.288Z,3.33
2019-01-09T13:26:46.599Z,3.33
2019-01-09T13:28:50.435Z,3.03
2019-01-09T13:30:54.387Z,2.53
2019-01-09T13:32:58.124Z,3.03
2019-01-09T13:35:02.283Z,2.17
2019-01-09T13:37:06.180Z,2.90
2019-01-09T13:39:10.513Z,2.90
2019-01-09T13:41:15.832Z,3.33
2019-01-09T13:43:19.697Z,2.90
2019-01-09T13:45:23.966Z,2.63
2019-01-09T13:47:27.888Z,2.60
2019-01-09T13:49:31.743Z,2.97
2019-01-09T13:51:35.611Z,2.47
2019-01-09T13:53:39.654Z,2.40
2019-01-09T13:55:43.650Z,2.30
2019-01-09T13:57:47.598Z,2.57
2019-01-09T13:59:53.088Z,2.53
2019-01-09T14:01:56.985Z,2.83
2019-01-09T14:04:00.849Z,3.00
2019-01-09T14:06:05.180Z,2.40
2019-01-09T14:08:09.519Z,2.40
2019-01-09T14:10:18.406Z,3.03
2019-01-09T14:12:22.357Z,2.90
2019-01-09T14:14:26.315Z,2.50
2019-01-09T14:16:30.163Z,3.50
2019-01-09T14:18:34.012Z,2.70
2019-01-09T14:20:38.529Z,2.90
2019-01-09T14:22:42.429Z,3.30
2019-01-09T14:24:46.235Z,3.00
2019-01-09T14:26:50.160Z,3.60
2019-01-09T14:28:54.007Z,3.20
2019-01-09T14:30:57.914Z,4.03
2019-01-09T14:33:04.575Z,3.63
2019-01-09T14:35:09.066Z,5.03
2019-01-09T14:37:13.008Z,3.23
2019-01-09T14:39:17.433Z,3.33
2019-01-09T14:41:21.106Z,3.00
2019-01-09T14:43:25.681Z,3.40
2019-01-09T14:45:29.473Z,3.80
2019-01-09T14:47:33.204Z,4.10
2019-01-09T14:49:36.935Z,3.47
2019-01-09T14:51:43.301Z,3.30
2019-01-09T14:53:46.009Z,3.40
2019-01-09T14:55:50.349Z,3.00
2019-01-09T14:57:55.501Z,3.17
2019-01-09T14:59:59.514Z,3.43
2019-01-09T15:02:03.551Z,3.40
2019-01-09T15:04:08.906Z,2.80
2019-01-09T15:06:13.122Z,5.03
2019-01-09T15:08:16.837Z,2.87
2019-01-09T15:10:24.260Z,3.20
2019-01-09T15:12:28.789Z,2.97
2019-01-09T15:14:32.910Z,3.33
2019-01-09T15:16:36.674Z,3.00
2019-01-09T15:18:40.407Z,2.50
2019-01-09T15:20:44.064Z,2.93
2019-01-09T15:22:47.934Z,3.37
2019-01-09T15:24:51.645Z,2.77
2019-01-09T15:26:55.842Z,2.40
2019-01-09T15:28:59.536Z,2.70
2019-01-09T15:31:03.376Z,3.23
2019-01-09T15:33:07.161Z,3.37
2019-01-09T15:35:13.631Z,2.90
2019-01-09T15:37:17.523Z,2.90
2019-01-09T15:39:21.248Z,2.60
2019-01-09T15:41:24.902Z,2.50
2019-01-09T15:43:28.673Z,2.43
2019-01-09T15:45:32.399Z,2.83
2019-01-09T15:47:37.971Z,2.90
2019-01-09T15:49:41.687Z,3.00
2019-01-09T15:51:45.427Z,2.97
2019-01-09T15:53:49.112Z,2.50
2019-01-09T15:55:52.794Z,3.10
2019-01-09T15:57:56.641Z,2.97
2019-01-09T16:00:00.792Z,3.03
2019-01-09T16:02:04.584Z,2.83
2019-01-09T16:04:09.369Z,2.67
2019-01-09T16:06:13.136Z,2.73
2019-01-09T16:08:16.947Z,3.00
2019-01-09T16:10:22.835Z,2.90
2019-01-09T16:12:26.523Z,2.73
2019-01-09T16:14:30.249Z,3.23
2019-01-09T16:16:33.997Z,2.97
2019-01-09T16:18:37.843Z,2.60
2019-01-09T16:20:41.469Z,2.60
2019-01-09T16:22:45.197Z,2.90
2019-01-09T16:24:50.610Z,3.03
2019-01-09T16:26:54.441Z,2.47
2019-01-09T16:28:58.184Z,2.73
2019-01-09T16:31:13.917Z,2.90
2019-01-09T16:33:17.659Z,4.33
2019-01-09T16:35:22.505Z,4.30
2019-01-09T16:37:26.259Z,3.70
2019-01-09T16:39:31.151Z,3.20
2019-01-09T16:41:36.555Z,2.90
2019-01-09T16:43:41.128Z,4.30
2019-01-09T16:45:44.957Z,3.57
2019-01-09T16:47:48.876Z,2.50
2019-01-09T16:49:53.000Z,3.40
2019-01-09T16:51:56.794Z,2.77
2019-01-09T16:54:00.562Z,2.93
2019-01-09T16:56:04.515Z,2.90
2019-01-09T16:58:08.314Z,2.50
2019-01-09T17:00:39.263Z,2.80
2019-01-09T17:02:43.145Z,2.90
2019-01-09T17:04:47.029Z,2.77
2019-01-09T17:06:50.772Z,3.30
2019-01-09T17:08:54.522Z,2.67
2019-01-09T17:10:58.820Z,2.73
2019-01-09T17:13:02.563Z,3.50
2019-01-09T17:15:09.491Z,2.50
2019-01-09T17:17:13.308Z,2.70
2019-01-09T17:19:17.000Z,2.73
2019-01-09T17:21:21.142Z,2.63
2019-01-09T17:23:24.822Z,2.47
2019-01-09T17:25:29.062Z,3.03
2019-01-09T17:27:32.779Z,2.77
2019-01-09T17:29:36.541Z,2.53
2019-01-09T17:31:40.295Z,2.43
2019-01-09T17:33:44.296Z,2.70
2019-01-09T17:35:48.125Z,2.70
2019-01-09T17:37:52.122Z,2.67
2019-01-09T17:39:55.826Z,2.43
2019-01-09T17:41:59.707Z,2.70
2019-01-09T17:44:03.749Z,2.70
2019-01-09T17:46:07.529Z,2.20
2019-01-09T17:48:14.443Z,2.97
2019-01-09T17:50:28.639Z,2.30
2019-01-09T17:52:34.800Z,2.80
2019-01-09T17:54:45.404Z,2.60
2019-01-09T17:56:52.221Z,2.73
2019-01-09T17:58:59.699Z,2.93
2019-01-09T18:01:05.586Z,2.30
2019-01-09T18:03:14.658Z,2.67
2019-01-09T18:05:18.479Z,2.93
2019-01-09T18:07:22.137Z,2.33
2019-01-09T18:09:25.781Z,3.30
2019-01-09T18:11:29.612Z,3.40
2019-01-09T18:13:33.253Z,2.50
2019-01-09T18:15:37.026Z,2.90
2019-01-09T18:17:40.754Z,2.87
2019-01-09T18:19:44.424Z,2.67
2019-01-09T18:21:48.189Z,3.40
2019-01-09T18:23:52.942Z,3.80
2019-01-09T18:25:56.690Z,3.63
2019-01-09T18:28:00.440Z,3.40
2019-01-09T18:30:09.362Z,2.97
2019-01-09T18:32:16.103Z,2.57
2019-01-09T18:34:19.829Z,2.90
2019-01-09T18:36:29.529Z,2.67
2019-01-09T18:38:36.589Z,3.93
2019-01-09T18:40:59.476Z,2.40
2019-01-09T18:43:06.490Z,3.23
2019-01-09T18:45:16.041Z,3.53
2019-01-09T18:47:23.227Z,4.47
2019-01-09T18:49:44.370Z,4.33
2019-01-09T18:52:10.633Z,4.73
2019-01-09T18:54:15.202Z,3.57
2019-01-09T18:56:18.910Z,3.63
2019-01-09T18:58:22.697Z,3.47
2019-01-09T19:00:26.900Z,3.33
2019-01-09T19:02:30.754Z,4.17
2019-01-09T19:04:34.479Z,3.30
2019-01-09T19:06:39.855Z,2.90
2019-01-09T19:08:43.584Z,3.33
2019-01-09T19:10:47.368Z,4.00
2019-01-09T19:12:52.689Z,3.60
2019-01-09T19:14:59.204Z,3.43
2019-01-09T19:17:03.024Z,3.37
2019-01-09T19:19:08.043Z,3.70
2019-01-09T19:21:13.066Z,4.30
2019-01-09T19:23:18.328Z,3.60
2019-01-09T19:25:22.245Z,4.07
2019-01-09T19:27:26.003Z,4.57
2019-01-09T19:29:29.713Z,3.73
2019-01-09T19:31:33.496Z,4.13
2019-01-09T19:33:37.263Z,3.40
2019-01-09T19:35:41.036Z,3.30
2019-01-09T19:37:44.792Z,3.60
2019-01-09T19:39:49.451Z,3.77
2019-01-09T19:41:53.168Z,3.70
2019-01-09T19:43:56.938Z,3.13
2019-01-09T19:46:00.683Z,2.93
2019-01-09T19:48:05.673Z,3.80
2019-01-09T19:50:15.527Z,3.53
2019-01-09T19:52:19.296Z,3.40
2019-01-09T19:54:36.825Z,3.27
2019-01-09T19:56:40.602Z,3.80
2019-01-09T19:58:44.378Z,4.63
2019-01-09T20:00:48.180Z,3.47
2019-01-09T20:02:52.045Z,6.00
2019-01-09T20:04:55.987Z,5.80
2019-01-09T20:07:00.023Z,9.20
2019-01-09T20:09:05.321Z,5.80
2019-01-09T20:11:09.122Z,3.87
2019-01-09T20:13:13.081Z,4.17
2019-01-09T20:15:18.688Z,4.10
2019-01-09T20:17:22.612Z,3.57
2019-01-09T20:19:26.334Z,3.67
2019-01-09T20:21:30.240Z,3.70
2019-01-09T20:23:34.098Z,3.70
2019-01-09T20:25:38.032Z,4.00
2019-01-09T20:27:41.808Z,3.67
2019-01-09T20:29:45.522Z,3.60
2019-01-09T20:31:49.241Z,3.60
2019-01-09T20:33:52.950Z,4.27
2019-01-09T20:35:56.782Z,3.70
2019-01-09T20:38:00.600Z,3.50
2019-01-09T20:40:07.446Z,3.57
2019-01-09T20:42:13.504Z,3.40
2019-01-09T20:44:17.479Z,4.90
2019-01-09T20:46:21.236Z,3.30
2019-01-09T20:48:24.936Z,3.60
2019-01-09T20:50:29.267Z,3.17
2019-01-09T20:52:33.197Z,3.73
2019-01-09T20:54:37.294Z,4.63
2019-01-09T20:56:41.005Z,3.90
2019-01-09T20:58:44.789Z,2.90
2019-01-09T21:00:48.650Z,3.57
2019-01-09T21:02:52.898Z,4.67
2019-01-09T21:04:56.694Z,3.73
2019-01-09T21:07:00.507Z,3.53
2019-01-09T21:09:06.685Z,5.67
2019-01-09T21:11:10.818Z,9.03
2019-01-09T21:13:14.650Z,8.50
2019-01-09T21:15:24.077Z,7.00
2019-01-09T21:17:31.929Z,7.10
2019-01-09T21:19:36.797Z,6.00
2019-01-09T21:21:40.718Z,4.33
2019-01-09T21:23:44.442Z,4.80
2019-01-09T21:25:48.196Z,3.83
2019-01-09T21:27:51.956Z,2.97
2019-01-09T21:29:55.694Z,3.00
2019-01-09T21:31:59.497Z,3.33
2019-01-09T21:34:03.216Z,4.37
2019-01-09T21:36:06.968Z,2.80
2019-01-09T21:38:10.614Z,3.20
2019-01-09T21:40:19.989Z,3.00
2019-01-09T21:42:23.621Z,3.30
2019-01-09T21:44:27.374Z,3.73
2019-01-09T21:46:31.119Z,3.20
2019-01-09T21:48:35.144Z,3.20
2019-01-09T21:50:38.840Z,3.87
2019-01-09T21:52:42.563Z,3.77
2019-01-09T21:54:46.317Z,3.13
2019-01-09T21:56:50.024Z,3.80
2019-01-09T21:58:53.743Z,3.13
2019-01-09T22:00:57.475Z,3.17
2019-01-09T22:03:01.225Z,3.37
2019-01-09T22:05:06.615Z,3.57
2019-01-09T22:07:10.650Z,3.63
2019-01-09T22:09:14.403Z,5.30
2019-01-09T22:11:18.162Z,4.50
2019-01-09T22:13:21.919Z,3.40
2019-01-09T22:15:25.931Z,3.13
2019-01-09T22:17:29.643Z,3.93
2019-01-09T22:19:33.376Z,4.50
2019-01-09T22:21:37.106Z,5.97
2019-01-09T22:23:40.821Z,5.30
2019-01-09T22:25:44.557Z,5.63
2019-01-09T22:27:48.862Z,7.30
2019-01-09T22:29:52.428Z,5.23
2019-01-09T22:31:56.108Z,5.17
2019-01-09T22:33:59.801Z,6.70
2019-01-09T22:36:03.601Z,5.37
2019-01-09T22:38:07.407Z,7.40
2019-01-09T22:40:16.640Z,7.63
2019-01-09T22:42:20.480Z,7.87
2019-01-09T22:44:24.155Z,6.70
2019-01-09T22:46:27.884Z,5.80
2019-01-09T22:48:31.714Z,3.97
2019-01-09T22:50:35.593Z,3.90
2019-01-09T22:52:39.386Z,4.00
2019-01-09T22:54:43.152Z,3.53
2019-01-09T22:56:46.751Z,4.80
2019-01-09T22:58:50.605Z,3.53
2019-01-09T23:00:57.299Z,3.50
2019-01-09T23:03:01.636Z,3.90
2019-01-09T23:05:06.294Z,3.90
2019-01-09T23:07:10.087Z,3.53
2019-01-09T23:09:13.837Z,3.03
2019-01-09T23:11:17.463Z,4.67
2019-01-09T23:13:21.210Z,3.90
2019-01-09T23:15:24.902Z,4.27
2019-01-09T23:17:28.690Z,3.80
2019-01-09T23:19:32.426Z,3.57
2019-01-09T23:21:36.237Z,3.80
2019-01-09T23:23:40.515Z,3.30
2019-01-09T23:25:44.284Z,3.73
2019-01-09T23:27:48.224Z,3.43
2019-01-09T23:29:52.019Z,4.20
2019-01-09T23:31:55.775Z,4.00
2019-01-09T23:33:59.553Z,4.50
2019-01-09T23:36:03.243Z,4.47
2019-01-09T23:38:07.025Z,4.47
2019-01-09T23:40:17.524Z,3.70
2019-01-09T23:42:30.010Z,3.30
2019-01-09T23:44:26.760Z,3.57
2019-01-09T23:46:30.475Z,3.60
2019-01-09T23:48:34.237Z,3.53
2019-01-09T23:50:38.081Z,3.50
2019-01-09T23:52:42.099Z,4.37
2019-01-09T23:54:45.695Z,4.20
2019-01-09T23:56:49.483Z,3.20
2019-01-09T23:58:53.343Z,3.67
